Aeroporto :
LOGIN :

Iscrizione | Disclaimer

   EN    FR    IT 

 










Sommario :    VFR   VFR Marginale   IFR   IFR Intensivo   IFR Molto Intensivo
Visibilità : 
Base nubi : 
>= 8 km
>= 3000ft
5 / 8 km
1000 / 3000 ft
1500m / 5 km
500 / 1000 ft
800 / 1500m
200 / 500 ft
< 800m
< 200 ft
Simboli :   Temporali  Nebbia  Neve Forte  Precipitazioni Forti  Vento > 20 kt
SIGMETs :   Varie  Temporali  Ghiacco  Turbolenza  Onda orograficha  Ceneri Vulcaniche







- Altitudine del aeroporto : 41 ft


LIRE - Pratica di Mare Air Base Pomezia

ULTIMO METAR :
  • 190755Z 04005KT 9999 FEW020 BKN030 10/04 Q1024 RMK OVC VIS MIN 9999 WIND THR13 03003KT WIND THR31 /////KT BLU

METARs OBSOLETI :
  • 190655Z 36003KT 9999 FEW020 BKN030 10/05 Q1023 RMK OVC VIS MIN 9999 WIND THR13 07003KT WIND THR31 /////KT BLU
  • 190555Z 04003KT 9999 FEW020 BKN030 10/04 Q1023 RMK OVC VIS MIN 9999 WIND THR13 04002KT WIND THR31 /////KT BLU

TAF TAF LIRE
Valido dal 19 a 09 ore il 19 a 18 ore UTC


190800Z 1909/1918 03005KT 9999 FEW020 BKN035
Nessun NOTAM noto per questo aeroporto.
3 SIGMETs conosciuti per la FIR Roma (LIRR) :
 
Cancellazione del SIGMET 1 
LIRR SIGMET 3 VALID 190725/191200 LIIB
LIRR ROMA FIR CNL SIGMET 1 190627/191200 NC=
Ceneri vulcaniche
LIRR SIGMET 2 VALID 190722/191430 LIIB
LIRR ROMA FIR VA ERUPTION MT ETNA PSN N3744 E01500 VA CLD OBS AT 0800Z WI N3730 E01449 - N3734 E01415 - N3755 E01425 - N3745 E01504 - N3730 E01449 MOV SW 10KT SFC/FL180 NC FCST AT 1400Z WI N3730 E01445 - N3819 E01345 - N3840 E01419 - N3745 E01504 - N3730 E01445=
SIGMET 1  ANNULATO :
Ceneri vulcaniche
LIRR SIGMET 1 VALID 190627/191200 LIIB
LIRR ROMA FIR VA ERUPTION MT ETNA PSN N3744 E01500 VA CLD OBS AT 0600Z WI N3704 E01449 - N3725 E01415 - N3740 E01504 - N3704 E01449 SFC/FL180 NC=



MetMap, La meteo Aeronautica in un colpo d'occhio ! - Copyright ORBIFLY Dicembre 2007 - Disclaimer

ORBIFLY MET'MAP TEAM :

Programmazione e sviluppo : Alexandra Zaïnal
Concezione e sviluppo : Baudouin d'Aumeries
Co-Programmazione e sviluppo : Marc-Olivier Méhu
Supporto tecnico e logistico : Manuel Goepfert
Aiuto per la traduzione : Arnaldo La Scala

Contatto : metmap@orbifly.com




FONTI E CREDITI :

   NOAA